Time;durP1;ratioP1;P1;durP2;ratioP2;P2;SDS_P1;SDS_P2;PMS_P1;PMS_P2;Temp;Humidity;BMP_temperature;BMP_pressure;BME280_temperature;BME280_humidity;BME280_pressure;Samples;Min_cycle;Max_cycle;Signal;HPM_P1;HPM_P2
2022/05/05 00:01:28;;;;;;;2.03;1.25;;;;;;;7.55;75.00;95163.50;5129982;28;20035;-74
2022/05/05 00:03:54;;;;;;;1.85;1.50;;;;;;;7.54;74.61;95165.25;5130024;28;20036;-74
2022/05/05 00:06:19;;;;;;;2.05;1.58;;;;;;;7.52;75.18;95169.72;5130000;27;20434;-74
2022/05/05 00:08:45;;;;;;;1.60;1.30;;;;;;;7.60;75.30;95172.66;5133393;27;20484;-74
2022/05/05 00:16:38;;;;;;;2.10;1.50;;;;;;;7.65;74.66;95171.50;5133863;27;20065;-74
2022/05/05 00:19:03;;;;;;;1.83;1.40;;;;;;;7.59;73.78;95165.78;5116272;27;20027;-74
2022/05/05 00:21:29;;;;;;;1.70;1.38;;;;;;;7.53;73.86;95166.19;5099548;27;20439;-74
2022/05/05 00:23:54;;;;;;;1.85;1.45;;;;;;;7.55;74.13;95169.53;5116193;27;20619;-74
2022/05/05 00:26:19;;;;;;;1.85;1.33;;;;;;;7.50;73.65;95171.56;5133386;27;20019;-74
2022/05/05 00:28:45;;;;;;;1.65;1.30;;;;;;;7.45;73.75;95172.81;5133364;27;20072;-74
2022/05/05 00:31:11;;;;;;;3.10;1.50;;;;;;;7.41;73.59;95167.00;5133259;27;20031;-74
2022/05/05 00:33:36;;;;;;;1.90;1.38;;;;;;;7.41;74.11;95159.25;5116200;27;20254;-74
2022/05/05 00:36:02;;;;;;;2.10;1.63;;;;;;;7.40;74.76;95167.91;5098894;27;20034;-74
2022/05/05 00:38:27;;;;;;;3.40;1.40;;;;;;;7.43;74.07;95159.16;5133117;27;20034;-74
2022/05/05 00:40:53;;;;;;;1.95;1.50;;;;;;;7.50;74.40;95165.59;5134072;27;20492;-74
2022/05/05 00:43:18;;;;;;;2.30;1.40;;;;;;;7.49;74.36;95162.16;5133046;27;20484;-74
2022/05/05 00:45:44;;;;;;;1.80;1.38;;;;;;;7.48;74.47;95157.09;5098995;27;20092;-74
2022/05/05 00:48:10;;;;;;;1.75;1.40;;;;;;;7.52;74.53;95164.56;5134240;27;20031;-74
2022/05/05 00:50:36;;;;;;;1.70;1.33;;;;;;;7.47;74.13;95150.28;5133143;27;20618;-74
2022/05/05 00:53:02;;;;;;;2.53;1.60;;;;;;;7.32;74.38;95139.97;5115836;27;20341;-74
2022/05/05 00:55:27;;;;;;;1.90;1.50;;;;;;;7.49;74.16;95153.56;5115751;27;20114;-74
2022/05/05 00:57:53;;;;;;;2.42;1.50;;;;;;;7.52;74.02;95154.22;5132862;27;20037;-74
2022/05/05 01:00:19;;;;;;;3.40;1.50;;;;;;;7.60;74.16;95161.44;5134158;27;20465;-74
2022/05/05 01:02:45;;;;;;;2.25;1.50;;;;;;;7.59;73.91;95170.97;5115635;27;20027;-74
2022/05/05 01:05:10;;;;;;;1.80;1.27;;;;;;;7.60;73.91;95153.69;5132707;27;20035;-74
2022/05/05 01:07:37;;;;;;;2.33;1.27;;;;;;;7.63;73.84;95158.66;5132630;27;20028;-74
2022/05/05 01:10:03;;;;;;;2.72;1.55;;;;;;;7.57;73.69;95161.66;5132403;27;20058;-74
2022/05/05 01:12:31;;;;;;;2.78;1.30;;;;;;;7.55;73.87;95166.94;5132824;27;20455;-74
2022/05/05 01:14:58;;;;;;;2.20;1.30;;;;;;;7.54;73.63;95162.69;5115555;27;20042;-74
2022/05/05 01:17:23;;;;;;;1.60;1.30;;;;;;;7.53;73.31;95166.19;5132446;27;20015;-74
2022/05/05 01:19:49;;;;;;;2.30;1.50;;;;;;;7.50;73.54;95163.81;5115211;27;20097;-74
2022/05/05 01:22:15;;;;;;;1.80;1.52;;;;;;;7.43;73.63;95162.56;5132389;27;20023;-74
2022/05/05 01:30:08;;;;;;;1.70;1.30;;;;;;;7.32;74.09;95180.50;5132458;27;20100;-74
2022/05/05 01:32:34;;;;;;;3.30;2.38;;;;;;;7.10;74.69;95176.72;5132143;27;20023;-74
2022/05/05 01:34:59;;;;;;;2.55;2.13;;;;;;;7.10;75.28;95179.31;5114994;27;20110;-74
2022/05/05 01:37:26;;;;;;;2.67;2.22;;;;;;;7.09;75.11;95176.81;5097805;27;20409;-74
2022/05/05 01:39:51;;;;;;;2.35;1.80;;;;;;;7.10;74.71;95174.16;5114869;27;20035;-74
2022/05/05 01:42:16;;;;;;;1.60;1.27;;;;;;;7.18;74.47;95178.81;5114822;27;20023;-74
2022/05/05 01:44:42;;;;;;;2.50;1.63;;;;;;;7.23;74.28;95183.69;5131978;27;20038;-74
2022/05/05 01:47:07;;;;;;;2.22;1.50;;;;;;;7.10;74.39;95170.72;5131737;27;20035;-74
2022/05/05 01:49:33;;;;;;;2.03;1.50;;;;;;;7.15;74.44;95182.41;5133111;27;20027;-74
2022/05/05 01:51:58;;;;;;;2.78;1.75;;;;;;;7.05;74.59;95173.59;5097575;27;20034;-74
2022/05/05 01:54:24;;;;;;;2.65;2.20;;;;;;;6.97;74.33;95183.59;5114477;27;20035;-74
2022/05/05 01:56:49;;;;;;;3.45;2.40;;;;;;;6.87;75.09;95170.41;5131665;27;20038;-74
2022/05/05 01:59:14;;;;;;;3.17;2.47;;;;;;;6.93;75.11;95171.78;5114399;27;20095;-74
2022/05/05 02:01:40;;;;;;;4.47;2.90;;;;;;;6.94;75.18;95178.63;5132759;27;20027;-74
2022/05/05 02:04:06;;;;;;;4.20;3.33;;;;;;;6.76;75.19;95184.91;5097562;27;20031;-74
2022/05/05 02:06:31;;;;;;;6.15;4.60;;;;;;;6.71;75.59;95183.47;5131490;27;20035;-74
2022/05/05 02:08:58;;;;;;;5.25;4.38;;;;;;;6.67;75.10;95181.97;5114194;27;20495;-74
2022/05/05 02:11:25;;;;;;;5.15;4.05;;;;;;;6.65;75.33;95177.81;5131501;27;20039;-74
2022/05/05 02:13:50;;;;;;;5.75;4.22;;;;;;;6.66;75.00;95184.66;5097422;27;20027;-74
2022/05/05 02:16:15;;;;;;;5.55;4.57;;;;;;;6.51;74.87;95185.59;5114134;27;20417;-74
2022/05/05 02:18:41;;;;;;;4.97;4.32;;;;;;;6.40;75.08;95188.81;5097019;27;20076;-74
2022/05/05 02:21:06;;;;;;;4.53;3.75;;;;;;;6.40;74.54;95188.81;5132232;27;20034;-74
2022/05/05 02:23:32;;;;;;;5.82;4.72;;;;;;;6.26;74.59;95180.16;5131269;27;20058;-74
2022/05/05 02:25:57;;;;;;;5.88;4.32;;;;;;;6.22;74.49;95186.44;5097176;27;20027;-74
2022/05/05 02:28:23;;;;;;;4.85;4.18;;;;;;;6.01;74.09;95198.00;5132348;27;20393;-73
2022/05/05 02:30:48;;;;;;;5.30;4.68;;;;;;;5.81;75.39;95199.97;5130796;27;20031;-74
2022/05/05 02:33:14;;;;;;;6.07;5.03;;;;;;;5.77;75.81;95200.25;5132207;27;20023;-74
2022/05/05 02:35:39;;;;;;;6.68;4.60;;;;;;;5.83;75.96;95205.03;5131051;27;20397;-74
2022/05/05 02:40:49;;;;;;;6.03;4.55;;;;;;;5.68;75.48;95209.31;5131177;27;20066;-74
2022/05/05 02:43:14;;;;;;;5.18;4.68;;;;;;;5.65;75.62;95206.91;5130900;27;20476;-74
2022/05/05 02:45:40;;;;;;;4.55;3.92;;;;;;;5.57;75.35;95214.25;5130965;27;20031;-74
2022/05/05 02:48:06;;;;;;;4.30;3.60;;;;;;;5.66;74.95;95218.09;5130765;27;20026;-73
2022/05/05 02:50:32;;;;;;;6.10;4.80;;;;;;;5.57;75.11;95219.41;5132283;27;20035;-73
2022/05/05 02:52:57;;;;;;;5.43;3.55;;;;;;;5.55;75.26;95216.94;5131917;27;20019;-73
2022/05/05 02:55:23;;;;;;;5.82;4.43;;;;;;;5.41;75.50;95219.47;5130544;27;20031;-73
2022/05/05 02:57:48;;;;;;;6.05;5.03;;;;;;;5.40;75.84;95219.53;5113605;28;20397;-73
2022/05/05 03:00:14;;;;;;;5.95;5.13;;;;;;;5.54;75.41;95225.59;5113393;28;20046;-73
2022/05/05 03:02:41;;;;;;;6.15;5.55;;;;;;;5.60;75.23;95221.84;5113565;28;20476;-73
2022/05/05 03:05:08;;;;;;;6.15;5.47;;;;;;;5.55;75.21;95234.16;5113667;28;20027;-73
2022/05/05 03:07:34;;;;;;;6.30;5.35;;;;;;;5.42;75.30;95236.56;5131791;27;20080;-73
2022/05/05 03:10:00;;;;;;;7.57;6.00;;;;;;;5.37;75.82;95225.69;5130398;28;20061;-73
2022/05/05 03:12:25;;;;;;;6.95;5.93;;;;;;;5.48;76.39;95231.06;5130518;28;20019;-73
2022/05/05 03:14:50;;;;;;;6.63;5.70;;;;;;;5.33;76.28;95222.47;5113378;28;20035;-73
2022/05/05 03:17:16;;;;;;;12.60;5.95;;;;;;;5.53;76.52;95243.72;5130532;28;20031;-73
2022/05/05 03:19:41;;;;;;;7.65;5.47;;;;;;;5.57;77.43;95245.19;5131760;27;20035;-73
2022/05/05 03:22:07;;;;;;;8.38;5.60;;;;;;;5.45;77.90;95240.72;5113341;28;20034;-73
2022/05/05 03:24:32;;;;;;;13.77;6.20;;;;;;;5.25;79.01;95244.41;5096266;28;20468;-73
2022/05/05 03:27:00;;;;;;;12.27;6.18;;;;;;;5.14;79.49;95250.97;5113174;28;20035;-73
2022/05/05 03:29:25;;;;;;;7.82;6.50;;;;;;;5.09;80.13;95240.09;5130303;28;20023;-73
2022/05/05 03:31:51;;;;;;;16.13;6.22;;;;;;;5.26;79.87;95243.50;5131538;27;20095;-73
2022/05/05 03:34:17;;;;;;;14.27;5.97;;;;;;;5.24;80.02;95237.63;5130242;28;20532;-73
2022/05/05 03:36:42;;;;;;;8.88;5.80;;;;;;;5.21;80.60;95237.75;5130313;28;20027;-73
2022/05/05 03:39:08;;;;;;;5.53;4.80;;;;;;;5.10;80.25;95238.38;5113001;28;20027;-73
2022/05/05 03:41:33;;;;;;;12.07;6.30;;;;;;;4.95;81.18;95242.59;5096080;28;20413;-73
2022/05/05 03:43:58;;;;;;;10.13;5.25;;;;;;;4.88;80.64;95247.25;5099919;27;20023;-73
2022/05/05 03:46:24;;;;;;;7.30;5.28;;;;;;;4.74;81.26;95244.56;5117044;27;20031;-73
2022/05/05 03:48:50;;;;;;;5.53;4.93;;;;;;;4.80;81.18;95246.81;5135442;27;20039;-73
2022/05/05 03:51:16;;;;;;;6.85;5.63;;;;;;;4.80;81.24;95256.28;5134179;27;20031;-73
2022/05/05 03:53:41;;;;;;;5.47;4.88;;;;;;;4.91;81.17;95249.66;5133936;27;20581;-73
2022/05/05 03:56:07;;;;;;;5.70;4.80;;;;;;;5.15;80.64;95251.78;5133967;27;20097;-73
2022/05/05 03:58:32;;;;;;;7.03;6.13;;;;;;;5.30;80.37;95248.41;5135241;27;20024;-73
2022/05/05 04:00:57;;;;;;;6.28;4.70;;;;;;;5.53;80.01;95254.84;5116621;27;20420;-73
2022/05/05 04:03:32;;;;;;;5.22;4.63;;;;;;;5.67;78.81;95255.81;5116663;27;20116;-73
2022/05/05 04:05:58;;;;;;;5.07;4.40;;;;;;;5.94;77.14;95250.88;5134069;27;20400;-73
2022/05/05 04:08:24;;;;;;;5.70;4.53;;;;;;;6.90;73.99;95254.63;5133823;27;20031;-73
2022/05/05 04:10:50;;;;;;;6.60;4.93;;;;;;;7.46;71.69;95252.81;5133646;27;20051;-73
2022/05/05 04:13:15;;;;;;;6.10;4.32;;;;;;;8.54;68.47;95256.19;5134925;27;20084;-74
2022/05/05 04:15:41;;;;;;;5.65;4.32;;;;;;;8.50;66.68;95266.75;5133526;27;20076;-74
2022/05/05 04:18:06;;;;;;;4.82;4.20;;;;;;;7.99;68.54;95269.22;5135134;27;20019;-73
2022/05/05 04:20:32;;;;;;;5.90;5.00;;;;;;;7.64;70.22;95279.28;5133613;27;20039;-73
2022/05/05 04:22:57;;;;;;;7.38;4.85;;;;;;;7.31;71.44;95287.41;5133525;27;20064;-73
2022/05/05 04:25:23;;;;;;;6.13;4.85;;;;;;;6.99;72.73;95279.88;5133551;27;20476;-73
2022/05/05 04:27:49;;;;;;;5.78;4.65;;;;;;;6.87;73.43;95265.97;5134638;27;20019;-73
2022/05/05 04:30:16;;;;;;;12.43;4.90;;;;;;;6.85;74.66;95287.63;5099318;27;20031;-73
2022/05/05 04:32:42;;;;;;;7.07;5.05;;;;;;;6.79;75.47;95288.00;5116388;27;20027;-74
2022/05/05 04:35:08;;;;;;;6.80;5.07;;;;;;;7.00;75.33;95280.72;5133346;27;20396;-73
2022/05/05 04:37:33;;;;;;;5.70;4.50;;;;;;;7.34;74.12;95285.44;5116110;27;20480;-73
2022/05/05 04:39:58;;;;;;;5.43;4.57;;;;;;;7.57;73.77;95291.75;5115952;27;20035;-73
2022/05/05 04:42:25;;;;;;;5.80;4.53;;;;;;;8.14;71.88;95300.22;5133149;27;20027;-73
2022/05/05 04:44:51;;;;;;;6.20;4.70;;;;;;;8.12;71.49;95302.09;5116187;27;20559;-73
2022/05/05 04:47:17;;;;;;;6.43;4.70;;;;;;;7.70;73.02;95296.16;5133079;27;20019;-73
2022/05/05 04:49:42;;;;;;;5.45;4.82;;;;;;;7.47;74.22;95300.22;5132945;27;20475;-73
2022/05/05 04:52:08;;;;;;;7.50;6.00;;;;;;;7.39;75.28;95300.69;5115847;27;20023;-73
2022/05/05 04:54:33;;;;;;;9.60;6.40;;;;;;;7.41;75.95;95292.81;5132623;27;20035;-73
2022/05/05 04:56:59;;;;;;;13.30;6.65;;;;;;;7.45;76.17;95294.31;5132850;27;20050;-73
2022/05/05 04:59:24;;;;;;;12.40;6.53;;;;;;;7.37;76.96;95292.19;5134163;27;20052;-73
2022/05/05 05:01:49;;;;;;;9.90;7.07;;;;;;;7.47;76.62;95293.28;5133990;27;20038;-73
2022/05/05 05:04:15;;;;;;;10.18;7.05;;;;;;;7.41;77.11;95280.75;5132578;27;21414;-73
2022/05/05 05:06:40;;;;;;;8.75;7.05;;;;;;;7.42;77.09;95286.75;5132739;27;20053;-73
2022/05/05 05:09:05;;;;;;;10.15;7.00;;;;;;;7.51;76.36;95281.81;5132471;27;20416;-74
2022/05/05 05:11:31;;;;;;;9.32;7.32;;;;;;;7.59;76.59;95292.50;5132324;27;20062;-73
2022/05/05 05:13:56;;;;;;;20.75;16.92;;;;;;;7.63;76.57;95290.53;5133899;27;20038;-73
2022/05/05 05:16:22;;;;;;;18.38;13.15;;;;;;;7.57;77.03;95291.75;5115286;27;20495;-73
2022/05/05 05:18:50;;;;;;;10.18;7.80;;;;;;;7.64;76.40;95288.81;5132453;27;20037;-73
2022/05/05 05:21:15;;;;;;;7.40;6.53;;;;;;;7.68;76.77;95293.66;5132284;27;20110;-73
2022/05/05 05:23:40;;;;;;;9.25;5.88;;;;;;;7.74;77.08;95297.59;5133498;27;20042;-73
2022/05/05 05:26:06;;;;;;;8.45;7.13;;;;;;;7.75;77.32;95300.13;5132294;27;20030;-74
2022/05/05 05:28:31;;;;;;;9.75;6.28;;;;;;;7.76;76.92;95295.75;5133489;27;20015;-73
2022/05/05 05:30:57;;;;;;;6.68;5.40;;;;;;;7.88;77.12;95304.50;5098131;27;20042;-73
2022/05/05 05:33:22;;;;;;;8.07;5.90;;;;;;;7.92;77.08;95301.63;5132202;27;20035;-74
2022/05/05 05:35:47;;;;;;;7.78;6.75;;;;;;;7.90;77.06;95303.47;5133744;27;20035;-73
2022/05/05 05:38:13;;;;;;;9.38;8.18;;;;;;;7.98;76.69;95315.91;5114870;27;20015;-73
2022/05/05 05:40:39;;;;;;;9.75;8.52;;;;;;;7.97;76.69;95316.84;5133494;27;20041;-73
2022/05/05 05:43:04;;;;;;;7.70;6.90;;;;;;;7.97;76.38;95324.63;5131895;27;20040;-73
2022/05/05 05:45:30;;;;;;;14.18;10.82;;;;;;;7.97;76.38;95325.44;5132046;27;20051;-73
2022/05/05 05:47:55;;;;;;;17.67;14.13;;;;;;;7.98;75.64;95327.09;5131839;27;20476;-74
2022/05/05 05:50:21;;;;;;;14.98;11.95;;;;;;;7.99;76.69;95320.16;5114735;27;20076;-73
2022/05/05 05:52:46;;;;;;;12.52;10.25;;;;;;;8.01;76.55;95324.28;5131826;27;20034;-73
2022/05/05 05:55:12;;;;;;;12.15;7.72;;;;;;;7.98;76.41;95310.75;5114661;27;20068;-73
2022/05/05 05:57:37;;;;;;;10.98;9.20;;;;;;;7.97;76.28;95315.09;5114505;27;20097;-74
2022/05/05 06:00:03;;;;;;;12.52;11.20;;;;;;;8.02;76.39;95318.22;5131543;27;20035;-73
2022/05/05 06:05:13;;;;;;;9.43;6.80;;;;;;;8.13;76.00;95325.25;5116793;27;20041;-73
2022/05/05 06:07:38;;;;;;;8.30;5.97;;;;;;;8.03;76.62;95309.50;5131583;27;20035;-73
2022/05/05 06:10:04;;;;;;;8.35;6.63;;;;;;;8.19;75.94;95324.03;5132503;27;20063;-74
2022/05/05 06:12:30;;;;;;;10.02;6.20;;;;;;;8.23;76.39;95300.44;5131389;27;20034;-73
2022/05/05 06:14:55;;;;;;;8.00;5.53;;;;;;;8.26;75.92;95313.19;5114261;27;20043;-73
2022/05/05 06:17:21;;;;;;;12.00;10.05;;;;;;;8.39;76.55;95313.25;5114162;27;20032;-74
2022/05/05 06:19:46;;;;;;;12.07;8.52;;;;;;;8.53;76.13;95319.28;5131155;27;20040;-73
2022/05/05 06:22:11;;;;;;;12.50;9.02;;;;;;;8.49;75.54;95316.84;5132730;27;20038;-73
2022/05/05 06:24:37;;;;;;;15.15;11.57;;;;;;;8.59;75.76;95331.81;5132512;27;20396;-73
2022/05/05 06:27:03;;;;;;;14.38;11.73;;;;;;;8.63;75.61;95333.25;5131208;27;20316;-73
2022/05/05 06:29:30;;;;;;;13.52;9.95;;;;;;;8.68;75.36;95333.78;5131199;27;20035;-74
2022/05/05 06:31:55;;;;;;;7.35;5.72;;;;;;;8.63;76.17;95325.47;5132273;27;20031;-73
2022/05/05 06:34:21;;;;;;;7.85;5.90;;;;;;;8.59;76.32;95324.84;5132282;27;20039;-73
2022/05/05 06:36:46;;;;;;;8.57;6.05;;;;;;;8.60;75.70;95318.72;5130989;27;20045;-73
2022/05/05 06:39:12;;;;;;;10.45;8.10;;;;;;;8.70;75.84;95322.38;5113654;27;20428;-74
2022/05/05 06:41:37;;;;;;;7.30;6.03;;;;;;;8.83;76.04;95319.78;5130872;27;20076;-74
2022/05/05 06:44:02;;;;;;;11.45;8.88;;;;;;;8.92;75.82;95324.34;5130709;27;20031;-74
2022/05/05 06:46:29;;;;;;;8.30;7.03;;;;;;;9.06;75.23;95331.19;5130814;27;20030;-73
2022/05/05 06:48:54;;;;;;;8.02;6.10;;;;;;;9.00;75.23;95315.19;5113674;28;20488;-74
2022/05/05 06:51:20;;;;;;;11.50;9.27;;;;;;;9.13;75.06;95326.38;5131890;27;20023;-74
2022/05/05 06:53:45;;;;;;;9.68;6.70;;;;;;;9.23;74.59;95331.78;5113652;28;20019;-74
2022/05/05 06:56:11;;;;;;;10.27;8.32;;;;;;;9.28;74.24;95319.34;5131843;27;20458;-74
2022/05/05 06:58:36;;;;;;;10.18;8.65;;;;;;;9.33;74.86;95325.00;5130673;27;20300;-74
2022/05/05 07:03:45;;;;;;;10.45;7.97;;;;;;;9.45;74.87;95325.94;5130811;27;20075;-74
2022/05/05 07:06:11;;;;;;;11.48;7.05;;;;;;;9.44;74.96;95332.03;5131737;27;20026;-74
2022/05/05 07:11:23;;;;;;;9.50;7.60;;;;;;;9.60;75.43;95314.47;5116360;28;20053;-74
2022/05/05 07:13:49;;;;;;;9.75;7.30;;;;;;;9.88;74.42;95326.28;5130519;28;20019;-74
2022/05/05 07:16:15;;;;;;;9.45;7.45;;;;;;;9.95;74.13;95324.91;5131972;27;20514;-74
2022/05/05 07:18:40;;;;;;;10.45;7.05;;;;;;;10.15;73.25;95330.44;5134672;27;20027;-74
2022/05/05 07:21:06;;;;;;;8.43;6.43;;;;;;;10.24;73.00;95330.56;5135799;27;20076;-74
2022/05/05 07:23:32;;;;;;;10.82;8.90;;;;;;;10.41;72.82;95329.38;5135978;27;20028;-74
2022/05/05 07:25:57;;;;;;;14.60;10.25;;;;;;;10.60;72.13;95328.84;5117584;27;20069;-75
2022/05/05 07:28:23;;;;;;;12.98;10.23;;;;;;;10.78;71.91;95342.22;5134614;27;20397;-74
2022/05/05 07:30:49;;;;;;;14.68;11.45;;;;;;;10.92;71.41;95336.81;5100450;27;20031;-74
2022/05/05 07:33:14;;;;;;;12.30;10.35;;;;;;;11.03;70.56;95332.53;5134473;27;20031;-74
2022/05/05 07:35:40;;;;;;;10.88;8.63;;;;;;;11.23;70.29;95341.41;5135529;27;20038;-74
2022/05/05 07:38:05;;;;;;;11.25;7.53;;;;;;;11.29;69.69;95343.56;5134422;27;20015;-74
2022/05/05 07:40:31;;;;;;;11.00;7.30;;;;;;;11.46;69.28;95335.28;5134432;27;20088;-74
2022/05/05 07:42:56;;;;;;;11.05;7.80;;;;;;;11.65;69.75;95334.66;5117162;27;20027;-74
2022/05/05 07:45:22;;;;;;;9.18;7.22;;;;;;;11.78;68.95;95331.91;5134393;27;20536;-74
2022/05/05 07:47:48;;;;;;;9.15;7.45;;;;;;;11.84;69.88;95336.66;5135435;27;20492;-74
2022/05/05 07:50:13;;;;;;;9.45;6.97;;;;;;;11.90;68.26;95330.16;5134030;27;20043;-74
2022/05/05 07:52:39;;;;;;;11.88;10.00;;;;;;;12.01;67.63;95320.53;5116954;27;20023;-74
2022/05/05 07:55:05;;;;;;;7.60;6.80;;;;;;;12.22;67.34;95327.53;5134120;27;20028;-74
2022/05/05 07:57:30;;;;;;;9.55;7.47;;;;;;;12.24;65.94;95328.25;5133940;27;20102;-74
2022/05/05 07:59:56;;;;;;;10.73;9.02;;;;;;;12.44;66.29;95340.47;5133949;27;20091;-74
2022/05/05 08:02:22;;;;;;;9.80;7.80;;;;;;;12.55;64.30;95328.34;5134227;27;20023;-74
2022/05/05 08:04:47;;;;;;;8.25;7.28;;;;;;;12.46;64.61;95309.09;5133727;27;20038;-74
2022/05/05 08:07:12;;;;;;;8.65;7.75;;;;;;;12.79;65.35;95330.69;5133864;27;20087;-74
2022/05/05 08:09:38;;;;;;;8.75;7.40;;;;;;;13.00;64.40;95341.13;5116356;27;20048;-74
2022/05/05 08:12:04;;;;;;;8.75;7.75;;;;;;;13.23;64.67;95340.00;5116577;27;20076;-74
2022/05/05 08:14:30;;;;;;;9.60;8.60;;;;;;;13.37;63.21;95338.84;5116655;27;20027;-74
2022/05/05 08:16:56;;;;;;;8.73;7.70;;;;;;;13.41;61.95;95328.03;5116536;27;20054;-75
2022/05/05 08:19:22;;;;;;;7.68;6.82;;;;;;;13.59;61.29;95340.44;5116531;27;20031;-75
2022/05/05 08:21:48;;;;;;;7.85;7.05;;;;;;;13.76;61.19;95334.59;5116544;27;20283;-76
2022/05/05 08:29:41;;;;;;;9.48;8.48;;;;;;;14.12;60.66;95328.88;5133433;27;20034;-75
2022/05/05 08:32:07;;;;;;;5.50;4.72;;;;;;;14.21;58.53;95322.84;5133414;27;20035;-74
2022/05/05 08:34:33;;;;;;;6.22;4.63;;;;;;;14.33;60.06;95331.38;5116240;27;20035;-75
2022/05/05 08:36:59;;;;;;;5.43;4.68;;;;;;;14.53;57.17;95327.81;5134477;27;20061;-75
2022/05/05 08:39:24;;;;;;;4.93;3.30;;;;;;;14.60;54.71;95326.31;5116018;27;20035;-75
2022/05/05 08:41:49;;;;;;;5.93;4.93;;;;;;;14.72;55.35;95319.13;5115911;27;20023;-75
2022/05/05 08:44:15;;;;;;;10.20;5.32;;;;;;;14.81;55.70;95310.44;5133125;27;20385;-74
2022/05/05 08:46:40;;;;;;;6.93;6.15;;;;;;;15.05;55.42;95325.66;5133142;27;20435;-75
2022/05/05 08:49:06;;;;;;;6.97;4.93;;;;;;;15.17;55.90;95313.22;5098792;27;20031;-75
2022/05/05 08:51:45;;;;;;;5.80;4.93;;;;;;;15.34;54.70;95315.09;5133030;27;20079;-75
2022/05/05 08:54:16;;;;;;;3.45;2.70;;;;;;;15.49;54.21;95311.97;5115801;27;20455;-75
2022/05/05 08:56:41;;;;;;;4.57;2.58;;;;;;;15.53;54.34;95303.72;5116222;27;20420;-75
2022/05/05 08:59:08;;;;;;;5.90;2.88;;;;;;;15.61;55.15;95295.13;5134063;27;20043;-75
2022/05/05 09:01:38;;;;;;;6.13;2.70;;;;;;;15.83;53.68;95309.66;5132741;27;20023;-75
2022/05/05 09:04:05;;;;;;;3.63;2.40;;;;;;;15.83;51.96;95307.03;5132723;27;20042;-75
2022/05/05 09:06:40;;;;;;;2.53;2.03;;;;;;;15.80;49.81;95294.22;5115786;27;20034;-75
2022/05/05 09:09:06;;;;;;;4.25;2.10;;;;;;;15.99;50.21;95308.97;5098557;27;20485;-75
2022/05/05 09:11:32;;;;;;;3.85;2.67;;;;;;;16.13;51.13;95312.88;5133707;27;20035;-75
2022/05/05 09:14:06;;;;;;;4.10;1.83;;;;;;;16.22;46.73;95299.72;5132393;27;20541;-75
2022/05/05 09:16:32;;;;;;;3.83;2.40;;;;;;;16.46;50.64;95306.97;5098472;27;20023;-75
2022/05/05 09:19:01;;;;;;;3.72;2.80;;;;;;;16.71;50.28;95315.03;5132341;27;20091;-75
2022/05/05 09:21:38;;;;;;;4.28;2.70;;;;;;;16.80;50.91;95308.06;5132271;27;20027;-75
2022/05/05 09:26:53;;;;;;;4.45;2.30;;;;;;;17.11;49.65;95295.34;5132481;27;20085;-75
2022/05/05 09:29:19;;;;;;;101.40;13.65;;;;;;;17.20;49.10;95297.84;5115181;27;20038;-75
2022/05/05 09:31:44;;;;;;;5.05;2.47;;;;;;;17.20;49.57;95300.47;5133415;27;20023;-75
2022/05/05 09:34:17;;;;;;;4.38;2.55;;;;;;;17.26;49.16;95293.75;5097979;27;20046;-75
2022/05/05 09:36:43;;;;;;;2.85;2.30;;;;;;;17.34;47.92;95299.06;5098159;27;20027;-75
2022/05/05 09:39:10;;;;;;;3.35;2.20;;;;;;;17.39;46.98;95288.91;5114243;28;20019;-75
2022/05/05 09:41:46;;;;;;;9.20;2.40;;;;;;;17.53;48.14;95290.13;5132678;27;20037;-76
2022/05/05 09:44:16;;;;;;;3.97;2.05;;;;;;;17.58;45.80;95279.97;5114735;27;20031;-75
2022/05/05 09:46:43;;;;;;;2.78;1.70;;;;;;;17.65;42.19;95278.34;5131946;27;20046;-75
2022/05/05 09:49:13;;;;;;;2.78;1.80;;;;;;;17.78;44.57;95287.59;5131611;27;20122;-75
2022/05/05 09:51:43;;;;;;;2.60;1.85;;;;;;;17.94;43.90;95289.44;5114851;27;20037;-75
2022/05/05 09:59:46;;;;;;;2.75;2.10;;;;;;;18.18;43.83;95281.63;5117490;27;20054;-75
2022/05/05 10:02:15;;;;;;;2.90;1.85;;;;;;;18.09;42.61;95280.78;5131587;27;20064;-75
2022/05/05 10:04:45;;;;;;;4.75;2.10;;;;;;;18.16;44.13;95275.69;5132907;27;20031;-76
2022/05/05 10:07:10;;;;;;;2.80;2.10;;;;;;;18.17;43.08;95279.16;5114590;27;20420;-75
2022/05/05 10:09:36;;;;;;;2.45;1.77;;;;;;;18.03;41.57;95260.41;5114164;27;20047;-75
2022/05/05 10:12:01;;;;;;;7.05;2.00;;;;;;;18.27;41.94;95274.56;5097248;27;20024;-75
2022/05/05 10:14:26;;;;;;;2.30;1.90;;;;;;;18.34;41.28;95272.09;5131387;27;20027;-75
2022/05/05 10:16:53;;;;;;;2.90;2.00;;;;;;;18.42;40.93;95275.56;5114306;27;20425;-75
2022/05/05 10:19:19;;;;;;;4.03;2.10;;;;;;;18.50;41.71;95269.50;5131197;27;20038;-76
2022/05/05 10:21:54;;;;;;;3.05;2.10;;;;;;;18.56;40.57;95276.72;5131200;27;20031;-76
2022/05/05 10:24:34;;;;;;;2.28;1.80;;;;;;;18.58;40.63;95276.53;5097321;27;20027;-76
2022/05/05 10:27:01;;;;;;;2.80;1.90;;;;;;;18.55;40.45;95269.78;5114302;27;20031;-75
2022/05/05 10:29:42;;;;;;;2.38;2.00;;;;;;;18.65;38.55;95270.44;5114124;27;20023;-75
2022/05/05 10:32:20;;;;;;;3.95;1.80;;;;;;;18.68;39.42;95279.81;5097330;28;20417;-76
2022/05/05 10:34:51;;;;;;;5.82;2.15;;;;;;;18.65;41.04;95262.56;5132444;27;20031;-76
2022/05/05 10:37:20;;;;;;;;;;;;;;;18.82;41.52;95271.28;5098006;27;20412;-76
2022/05/05 10:39:50;;;;;;;2.80;2.00;;;;;;;18.88;39.55;95278.50;5130974;27;19919;-75
2022/05/05 10:42:17;;;;;;;3.67;1.90;;;;;;;18.98;36.34;95276.53;5130973;27;20399;-75
2022/05/05 10:45:22;;;;;;;2.65;1.75;;;;;;;19.05;37.25;95270.59;5096852;27;20039;-76
2022/05/05 10:48:06;;;;;;;2.70;1.90;;;;;;;19.09;36.60;95274.53;5120169;27;20061;-75
2022/05/05 10:50:50;;;;;;;4.10;1.80;;;;;;;18.97;37.21;95258.25;5132179;27;20031;-75
2022/05/05 10:53:36;;;;;;;2.80;2.10;;;;;;;19.02;38.30;95270.91;5115579;27;20031;-76
2022/05/05 10:56:03;;;;;;;2.85;1.80;;;;;;;19.09;34.49;95271.91;5130686;27;20042;-76
2022/05/05 10:58:57;;;;;;;3.35;2.30;;;;;;;19.11;39.46;95273.38;5130790;27;20648;-76
2022/05/05 11:01:23;;;;;;;2.72;2.35;;;;;;;19.26;38.32;95270.88;5131792;27;20114;-76
2022/05/05 11:04:07;;;;;;;6.15;4.25;;;;;;;19.31;37.45;95259.84;5130631;27;20032;-76
2022/05/05 11:06:34;;;;;;;2.47;1.70;;;;;;;19.41;36.27;95268.34;5130684;28;20047;-76
2022/05/05 11:08:59;;;;;;;2.58;1.75;;;;;;;19.50;35.45;95269.97;5130336;27;20145;-76
2022/05/05 11:11:39;;;;;;;2.40;1.80;;;;;;;19.51;36.28;95271.59;5130401;28;20122;-76
2022/05/05 11:23:10;;;;;;;2.05;1.60;;;;;;;19.76;35.59;95271.53;5109093;28;20031;-76
2022/05/05 11:25:40;;;;;;;2.20;1.90;;;;;;;19.79;36.96;95253.53;5081568;28;20050;-76
2022/05/05 11:28:10;;;;;;;2.17;1.80;;;;;;;19.88;36.22;95264.84;5131671;27;20068;-76
2022/05/05 11:30:35;;;;;;;4.28;2.05;;;;;;;19.94;36.29;95265.97;5113788;28;20052;-75
2022/05/05 11:33:03;;;;;;;4.53;2.08;;;;;;;19.94;34.37;95260.72;5130421;28;20030;-76
2022/05/05 11:35:28;;;;;;;2.72;1.77;;;;;;;19.84;33.50;95267.03;5130525;28;20114;-75
2022/05/05 11:37:54;;;;;;;2.38;1.50;;;;;;;19.84;33.95;95272.31;5130325;28;20412;-75
2022/05/05 11:40:19;;;;;;;2.28;1.50;;;;;;;19.74;35.15;95271.69;5130368;28;20034;-75
2022/05/05 11:45:29;;;;;;;4.65;3.10;;;;;;;19.70;34.75;95256.41;5131861;28;20526;-75
2022/05/05 11:47:55;;;;;;;4.30;2.00;;;;;;;19.74;36.13;95253.25;5130240;28;20105;-76
2022/05/05 11:50:21;;;;;;;3.17;1.90;;;;;;;19.78;35.44;95256.34;5113245;28;20119;-75
2022/05/05 11:52:46;;;;;;;3.13;1.95;;;;;;;19.89;34.75;95252.50;5130184;28;20042;-75
2022/05/05 11:55:13;;;;;;;3.75;2.00;;;;;;;20.00;33.45;95252.94;5113062;28;20045;-76
2022/05/05 11:57:39;;;;;;;2.90;1.67;;;;;;;20.02;33.87;95247.47;5113360;28;20327;-76
2022/05/05 12:02:53;;;;;;;3.20;1.85;;;;;;;19.98;34.69;95244.38;5130773;27;20042;-76
2022/05/05 12:05:21;;;;;;;3.95;1.70;;;;;;;20.11;34.76;95245.59;5099811;27;20062;-75
2022/05/05 12:07:46;;;;;;;4.75;2.17;;;;;;;20.27;35.76;95240.22;5133905;27;20107;-75
2022/05/05 12:10:13;;;;;;;3.28;1.52;;;;;;;20.37;35.34;95235.53;5116481;27;20134;-75
2022/05/05 12:12:42;;;;;;;3.28;1.80;;;;;;;20.43;33.95;95234.81;5133814;27;20031;-75
2022/05/05 12:15:10;;;;;;;4.95;1.70;;;;;;;20.48;34.47;95237.75;5133713;27;20104;-75
2022/05/05 12:17:43;;;;;;;2.90;1.70;;;;;;;20.49;34.02;95231.47;5116813;27;20415;-76
2022/05/05 12:20:18;;;;;;;2.17;1.40;;;;;;;20.62;34.46;95232.72;5100306;27;20038;-76
2022/05/05 12:22:44;;;;;;;2.80;1.60;;;;;;;20.50;34.44;95227.84;5133645;27;20118;-75
2022/05/05 12:25:14;;;;;;;2.97;1.77;;;;;;;20.58;33.19;95239.34;5116473;27;20024;-75